• Join FlightAware (Why Join?)
  • Login
  • US Flag 
06:03AM EDT


 

Airport Tracker/Info


-or-


 

Live Flight TrackerFlight Track Log ✈ DAL1903 ✈ 13-Apr-2013 ✈ KLGA - KSRQ

Flight Track Log - Related Links

Times and Time Zones

All times are in EDT time to prevent confusion due to time zone crossing. See the DAL1903 flight status page for this flight to view local times or setup timezone preferences in your user account.

Time Position Orientation Groundspeed Altitude Reporting Facility
EDT Latitude Longitude Course Direction KTS MPH feet Rate Location/Type
11:17AM 40.8167 -73.8667 346° North 171 197 1,600  Level New York TRACON
11:18AM 40.8667 -73.8833 346° North 245 282 3,800 2,880 Climbing New York TRACON
11:19AM 40.8833 -73.9667 285° West 245 282 7,400 3,420 Climbing New York TRACON
11:20AM 40.8667 -74.0667 258° West 243 280 11,000 2,280 Climbing New York TRACON
11:21AM 40.8167 -74.1500 232° Southwest 285 328 12,200 1,440 Climbing New York TRACON
11:22AM 40.7667 -74.2500 237° Southwest 345 397 13,900 2,040 Climbing New York TRACON
11:24AM 40.6597 -74.4806 239° Southwest 354 407 19,000 2,040 Climbing New York Center
11:25AM 40.5958 -74.5864 232° Southwest 364 419 20,700 1,680 Climbing New York Center
11:26AM 40.5319 -74.6922 232° Southwest 375 432 22,400 1,740 Climbing New York Center
11:27AM 40.4658 -74.8003 231° Southwest 386 444 24,200 1,920 Climbing New York Center
11:28AM 40.3994 -74.9081 231° Southwest 386 444 26,300 2,040 Climbing New York Center
11:29AM 40.3375 -75.0106 232° Southwest 380 437 28,400 1,620 Climbing New York Center
11:30AM 40.2775 -75.1103 232° Southwest 370 426 29,600 1,140 Climbing New York Center
11:31AM 40.2133 -75.2122 231° Southwest 365 420 30,700 1,140 Climbing New York Center
11:32AM 40.1533 -75.3117 232° Southwest 365 420 31,900 660 Climbing New York Center
11:33AM 40.0911 -75.4106 231° Southwest 365 420 32,000  Climbing New York Center
11:34AM 40.0286 -75.5094 230° Southwest 365 420 32,000  Level New York Center
11:35AM 39.9664 -75.6056 230° Southwest 365 420 32,000  Level New York Center
11:36AM 39.9039 -75.7039 230° Southwest 360 414 32,000  Level New York Center
11:37AM 39.8417 -75.7997 230° Southwest 360 414 32,000  Level New York Center
11:38AM 39.7831 -75.8981 232° Southwest 360 414 32,000  Level New York Center
11:39AM 39.7183 -75.9961 229° Southwest 360 414 32,000  Level New York Center
11:40AM 39.6556 -76.0939 230° Southwest 360 414 32,000 360 Level New York Center
11:41AM 39.6103 -76.1653 231° Southwest 363 418 32,600 840 Climbing Washington Center
11:42AM 39.5450 -76.2669 230° Southwest 344 396 33,400 600 Climbing Washington Center
11:43AM 39.4819 -76.3606 229° Southwest 349 402 33,900 300 Climbing Washington Center
11:44AM 39.4231 -76.4594 232° Southwest 349 402 34,000  Climbing Washington Center
11:45AM 39.3639 -76.5472 229° Southwest 349 402 34,000  Level Washington Center
11:46AM 39.3028 -76.6431 231° Southwest 349 402 34,000  Level Washington Center
11:47AM 39.2414 -76.7411 231° Southwest 349 402 34,000  Level Washington Center
11:48AM 39.1778 -76.8367 229° Southwest 349 402 34,000  Level Washington Center
11:49AM 39.1144 -76.9344 230° Southwest 349 402 34,000  Level Washington Center
11:50AM 39.0506 -77.0322 230° Southwest 349 402 34,000  Level Washington Center
11:51AM 38.9767 -77.1136 221° Southwest 349 402 34,000  Level Washington Center
11:52AM 38.9006 -77.1975 221° Southwest 360 414 34,000  Level Washington Center
11:53AM 38.8244 -77.2783 220° Southwest 366 421 34,000  Level Washington Center
11:54AM 38.7461 -77.3617 220° Southwest 366 421 34,000  Level Washington Center
11:55AM 38.6719 -77.4450 221° Southwest 366 421 34,000  Level Washington Center
11:56AM 38.5956 -77.5281 220° Southwest 366 421 34,000  Level Washington Center
11:57AM 38.5128 -77.6214 221° Southwest 366 421 34,000  Level Washington Center
11:58AM 38.4342 -77.7042 220° Southwest 366 421 34,000  Level Washington Center
11:59AM 38.3556 -77.7867 219° Southwest 366 421 34,000  Level Washington Center
12:00PM 38.2831 -77.8667 221° Southwest 361 415 34,000  Level Washington Center
12:01PM 38.2044 -77.9486 219° Southwest 361 415 34,000  Level Washington Center
12:02PM 38.1297 -78.0308 221° Southwest 361 415 34,000  Level Washington Center
12:03PM 38.0550 -78.1103 220° Southwest 361 415 34,000  Level Washington Center
12:04PM 37.9806 -78.1867 219° Southwest 361 415 34,000  Level Washington Center
12:05PM 37.9058 -78.2606 218° Southwest 356 410 34,000  Level Washington Center
12:06PM 37.8333 -78.3289 217° Southwest 361 415 34,000  Level Washington Center
12:07PM 37.7544 -78.4047 217° Southwest 361 415 34,000  Level Washington Center
12:08PM 37.6756 -78.4781 216° Southwest 366 421 34,000  Level Washington Center
12:09PM 37.5944 -78.5536 216° Southwest 366 421 34,000  Level Washington Center
12:10PM 37.5069 -78.6339 216° Southwest 366 421 34,000  Level Washington Center
12:11PM 37.4278 -78.7092 217° Southwest 371 427 34,000  Level Washington Center
12:12PM 37.3444 -78.7867 216° Southwest 371 427 34,000  Level Washington Center
12:13PM 37.2631 -78.8592 215° Southwest 371 427 34,000  Level Washington Center
12:14PM 37.1839 -78.9367 218° Southwest 371 427 34,000  Level Washington Center
12:15PM 37.1089 -79.0036 215° Southwest 371 427 34,000  Level Washington Center
12:16PM 37.0297 -79.0781 217° Southwest 371 427 34,000  Level Washington Center
12:17PM 36.9461 -79.1522 215° Southwest 371 427 34,000  Level Washington Center
12:18PM 36.8644 -79.2292 217° Southwest 371 427 34,000  Level Washington Center
12:19PM 36.7808 -79.3031 215° Southwest 376 433 34,000  Level Washington Center
12:20PM 36.6392 -79.4336 216° Southwest 363 418 34,000  Level Atlanta Center
12:21PM 36.5625 -79.5028 216° Southwest 371 427 34,000 -480 Level Atlanta Center
12:22PM 36.4778 -79.5772 215° Southwest 371 427 33,100 -1,020 Descending Atlanta Center
12:23PM 36.3969 -79.6539 217° Southwest 371 427 32,000 -600 Descending Atlanta Center
12:24PM 36.3122 -79.7308 216° Southwest 371 427 32,000  Level Atlanta Center
12:25PM 36.2192 -79.8181 217° Southwest 376 433 32,000  Level Atlanta Center
12:26PM 36.1342 -79.8919 215° Southwest 376 433 32,000  Level Atlanta Center
12:27PM 36.0492 -79.9681 216° Southwest 381 438 32,000  Level Atlanta Center
12:28PM 35.9528 -80.0192 203° Southwest 381 438 32,000  Level Atlanta Center
12:29PM 35.8625 -80.0672 203° Southwest 388 447 32,000  Level Atlanta Center
12:30PM 35.7639 -80.1131 201° Southwest 388 447 32,000  Level Atlanta Center
12:31PM 35.6531 -80.1719 203° Southwest 388 447 32,000  Level Atlanta Center
12:32PM 35.5525 -80.2225 202° Southwest 388 447 32,000  Level Atlanta Center
12:33PM 35.4561 -80.2731 203° Southwest 393 452 32,000  Level Atlanta Center
12:34PM 35.3533 -80.3236 202° Southwest 388 447 32,000  Level Atlanta Center
12:35PM 35.2628 -80.3708 203° Southwest 394 453 32,000  Level Atlanta Center
12:36PM 35.1642 -80.4183 201° Southwest 388 447 32,000  Level Atlanta Center
12:37PM 35.0614 -80.4686 202° Southwest 395 455 32,000  Level Atlanta Center
12:40PM 34.8353 -80.5783 202° Southwest 411 473 32,000  Level Jacksonville Center
12:41PM 34.7383 -80.6339 205° Southwest 397 457 32,000  Level Jacksonville Center
12:42PM 34.6389 -80.6794 201° Southwest 397 457 32,000  Level Jacksonville Center
12:43PM 34.5314 -80.7278 200° South 406 467 32,000  Level Jacksonville Center
12:44PM 34.4197 -80.7833 202° Southwest 405 466 32,000  Level Jacksonville Center
12:45PM 34.3183 -80.8336 202° Southwest 405 466 32,000  Level Jacksonville Center
12:46PM 34.2189 -80.8836 203° Southwest 393 452 32,000  Level Jacksonville Center
12:47PM 34.1153 -80.9311 201° Southwest 393 452 32,000  Level Jacksonville Center
12:48PM 34.0139 -80.9808 202° Southwest 393 452 32,000  Level Jacksonville Center
12:49PM 33.9103 -81.0283 201° Southwest 398 458 32,000  Level Jacksonville Center
12:50PM 33.8192 -81.0728 202° Southwest 398 458 32,000  Level Jacksonville Center
12:51PM 33.7031 -81.1325 203° Southwest 398 458 32,000  Level Jacksonville Center
12:52PM 33.6014 -81.1819 202° Southwest 403 464 32,000  Level Jacksonville Center
12:53PM 33.5000 -81.2311 202° Southwest 403 464 32,000  Level Jacksonville Center
12:54PM 33.3961 -81.2803 202° Southwest 403 464 32,000  Level Jacksonville Center
12:55PM 33.2947 -81.3319 203° Southwest 403 464 32,000  Level Jacksonville Center
12:56PM 33.1908 -81.3833 202° Southwest 403 464 32,000  Level Jacksonville Center
12:57PM 33.0892 -81.4322 202° Southwest 403 464 32,000  Level Jacksonville Center
12:58PM 32.9833 -81.4836 202° Southwest 403 464 32,000  Level Jacksonville Center
12:59PM 32.8794 -81.5347 202° Southwest 403 464 32,000  Level Jacksonville Center
01:00PM 32.7778 -81.5856 203° Southwest 408 470 32,000  Level Jacksonville Center
01:01PM 32.6822 -81.6339 203° Southwest 414 476 32,000  Level Jacksonville Center
01:02PM 32.5700 -81.6944 204° Southwest 409 471 32,000  Level Jacksonville Center
01:03PM 32.4789 -81.7697 215° Southwest 404 465 32,000  Level Jacksonville Center
01:04PM 32.3939 -81.8372 214° Southwest 411 473 32,000  Level Jacksonville Center
01:05PM 32.2944 -81.9194 215° Southwest 411 473 32,000  Level Jacksonville Center
01:06PM 32.2114 -81.9867 214° Southwest 411 473 32,000  Level Jacksonville Center
01:07PM 32.1117 -82.0708 216° Southwest 405 466 32,000  Level Jacksonville Center
01:08PM 32.0203 -82.1453 215° Southwest 405 466 32,000  Level Jacksonville Center
01:09PM 31.9372 -82.2119 214° Southwest 405 466 32,000  Level Jacksonville Center
01:10PM 31.8372 -82.2933 215° Southwest 405 466 32,000  Level Jacksonville Center
01:11PM 31.7458 -82.3672 215° Southwest 405 466 32,000  Level Jacksonville Center
01:12PM 31.6542 -82.4411 214° Southwest 405 466 32,000  Level Jacksonville Center
01:13PM 31.5606 -82.5172 215° Southwest 405 466 32,000  Level Jacksonville Center
01:14PM 31.4689 -82.5931 215° Southwest 405 466 32,000  Level Jacksonville Center
01:15PM 31.3750 -82.6664 214° Southwest 405 466 32,000  Level Jacksonville Center
01:16PM 31.2833 -82.7394 214° Southwest 405 466 32,000  Level Jacksonville Center
01:17PM 31.1914 -82.8147 215° Southwest 405 466 32,000  Level Jacksonville Center
01:18PM 31.1081 -82.8806 214° Southwest 405 466 32,000  Level Jacksonville Center
01:19PM 31.0139 -82.9556 214° Southwest 405 466 32,000  Level Jacksonville Center
01:20PM 30.9200 -83.0306 214° Southwest 410 472 32,000 -540 Level Jacksonville Center
01:21PM 30.8281 -83.1031 214° Southwest 410 472 31,000 -540 Descending Jacksonville Center
01:22PM 30.7339 -83.1753 213° Southwest 405 466 31,000  Level Jacksonville Center
01:23PM 30.6314 -83.2281 204° Southwest 405 466 31,000  Level Jacksonville Center
01:24PM 30.5125 -83.2350 183° South 405 466 31,000  Level Jacksonville Center
01:25PM 30.3933 -83.2467 185° South 423 487 31,000  Level Jacksonville Center
01:26PM 30.2744 -83.2558 184° South 428 493 31,000  Level Jacksonville Center
01:27PM 30.1575 -83.2650 184° South 428 493 31,000  Level Jacksonville Center
01:28PM 30.0364 -83.2742 184° South 428 493 31,000  Level Jacksonville Center
01:29PM 29.9194 -83.2856 185° South 428 493 31,000  Level Jacksonville Center
01:30PM 29.7983 -83.2947 184° South 428 493 31,000  Level Jacksonville Center
01:31PM 29.6644 -83.3036 183° South 428 493 31,000  Level Jacksonville Center
01:32PM 29.5456 -83.3103 183° South 428 493 31,000  Level Jacksonville Center
01:33PM 29.4286 -83.3169 183° South 428 493 31,000  Level Jacksonville Center
01:34PM 29.3117 -83.3236 183° South 428 493 31,000  Level Jacksonville Center
01:35PM 29.1928 -83.3325 184° South 428 493 31,000 -360 Level Jacksonville Center
01:36PM 29.0717 -83.3417 184° South 428 493 30,300 -1,500 Descending Jacksonville Center
01:37PM 28.9525 -83.3506 184° South 428 493 28,000 -1,800 Descending Jacksonville Center
01:38PM 28.8336 -83.3239 169° South 428 493 26,800 -1,740 Descending Jacksonville Center
01:39PM 28.7169 -83.2783 161° South 434 499 24,600 -2,400 Descending Jacksonville Center
01:40PM 28.6044 -83.2283 159° South 429 494 22,000 -2,580 Descending Jacksonville Center
01:42PM 28.3500 -83.1333 162° South 404 465 16,200 -2,580 Descending Tampa TRACON
01:43PM 28.2500 -83.0833 156° South 392 451 13,500 -2,280 Descending Tampa TRACON
01:44PM 28.1500 -83.0500 164° South 373 429 11,400 -1,200 Descending Tampa TRACON
01:45PM 28.0500 -83.0167 164° South 362 417 11,000 -300 Descending Tampa TRACON
01:46PM 27.9500 -83.0167 180° South 354 407 10,800 -480 Descending Tampa TRACON
01:47PM 27.8667 -83.0167 180° South 310 357 10,100 -1,320 Descending Tampa TRACON
01:48PM 27.7833 -83.0000 170° South 287 330 8,400 -1,680 Descending Tampa TRACON
01:49PM 27.7167 -82.9333 138° Southeast 300 345 6,600 -1,200 Descending Tampa TRACON
01:50PM 27.6667 -82.8500 124° Southeast 302 348 6,000 -300 Descending Tampa TRACON
01:51PM 27.6333 -82.7833 119° Southeast 302 348 6,000 -420 Level Tampa TRACON
01:52PM 27.5833 -82.7000 124° Southeast 301 346 5,200 -840 Descending Tampa TRACON
01:53PM 27.5333 -82.6333 130° Southeast 295 339 4,400 -660 Descending Tampa TRACON
01:54PM 27.5000 -82.5500 114° Southeast 285 328 4,000 -240 Descending Tampa TRACON
01:55PM 27.4500 -82.4833 130° Southeast 236 272 3,900 -780 Descending Tampa TRACON
01:56PM 27.4000 -82.4500 149° Southeast 222 255 2,400 -1,080 Descending Tampa TRACON
01:57PM 27.3500 -82.4500 180° South 215 247 1,800 -480 Descending Tampa TRACON
01:58PM 27.3500 -82.5000 270° West 182 209 1,500 -660 Descending Tampa TRACON
01:59PM 27.3667 -82.5333 299° West 141 162 600 -900 Descending Tampa TRACON